Time;durP1;ratioP1;P1;durP2;ratioP2;P2;SDS_P1;SDS_P2;PMS_P1;PMS_P2;Temp;Humidity;BMP_temperature;BMP_pressure;BME280_temperature;BME280_humidity;BME280_pressure;Samples;Min_cycle;Max_cycle;Signal;HPM_P1;HPM_P2
2023/03/14 00:02:22;;;;;;;0.40;0.40;;;10.10;99.90;;;;;;6270268;22;20164;-76
2023/03/14 00:04:48;;;;;;;2.53;0.80;;;10.10;99.90;;;;;;6244760;22;20151;-81
2023/03/14 00:07:14;;;;;;;1.30;0.60;;;10.10;99.90;;;;;;6270673;22;20136;-83
2023/03/14 00:09:39;;;;;;;0.70;0.63;;;10.10;99.90;;;;;;6246927;22;20175;-81
2023/03/14 00:12:07;;;;;;;1.47;0.60;;;10.10;99.90;;;;;;6245556;22;20171;-81
2023/03/14 00:14:33;;;;;;;0.93;0.50;;;;;;;;;;6240761;22;20152;-80
2023/03/14 00:16:58;;;;;;;0.50;0.40;;;10.10;99.90;;;;;;6236338;22;20171;-78
2023/03/14 00:19:24;;;;;;;0.80;0.60;;;10.10;99.90;;;;;;6241551;22;20155;-80
2023/03/14 00:21:49;;;;;;;1.50;0.60;;;10.10;99.90;;;;;;6267206;22;20638;-79
2023/03/14 00:24:15;;;;;;;0.90;0.47;;;10.00;99.90;;;;;;6273788;22;20155;-81
2023/03/14 00:26:41;;;;;;;0.83;0.50;;;10.00;99.90;;;;;;6272894;22;20144;-81
2023/03/14 00:29:06;;;;;;;5.10;0.53;;;10.00;99.90;;;;;;6247422;22;20172;-82
2023/03/14 00:31:32;;;;;;;0.40;0.30;;;;;;;;;;6240247;22;20164;-81
2023/03/14 00:33:58;;;;;;;1.23;0.77;;;10.00;99.90;;;;;;6239396;22;20179;-80
2023/03/14 00:36:23;;;;;;;0.80;0.50;;;10.10;99.90;;;;;;6268845;22;20378;-79
2023/03/14 00:38:51;;;;;;;1.53;0.50;;;10.10;99.90;;;;;;6245412;22;20178;-79
2023/03/14 00:41:20;;;;;;;1.02;0.50;;;10.10;99.90;;;;;;6269234;22;20240;-83
2023/03/14 00:43:46;;;;;;;1.05;0.50;;;;;;;;;;6242225;22;20152;-81
2023/03/14 00:46:12;;;;;;;0.65;0.45;;;10.10;99.90;;;;;;6269960;22;20148;-80
2023/03/14 00:48:38;;;;;;;0.68;0.50;;;;;;;;;;6244053;22;20189;-81
2023/03/14 00:51:05;;;;;;;1.97;1.00;;;10.10;99.90;;;;;;6241908;22;20188;-77
2023/03/14 00:53:31;;;;;;;1.08;0.63;;;;;;;;;;6278126;22;20362;-81
2023/03/14 00:55:56;;;;;;;0.43;0.40;;;10.10;99.90;;;;;;6272270;22;20139;-79
2023/03/14 00:58:22;;;;;;;1.13;0.70;;;10.10;99.90;;;;;;6257957;22;20167;-82
2023/03/14 01:00:47;;;;;;;1.63;0.70;;;10.10;99.90;;;;;;6269244;22;20171;-85
2023/03/14 01:03:14;;;;;;;1.47;0.57;;;10.00;99.90;;;;;;6269301;22;20217;-81
2023/03/14 01:05:40;;;;;;;0.40;0.40;;;10.00;99.90;;;;;;6269902;22;20152;-79
2023/03/14 01:08:11;;;;;;;0.50;0.40;;;9.90;99.90;;;;;;6271947;22;20171;-80
2023/03/14 01:10:40;;;;;;;0.60;0.50;;;10.00;99.90;;;;;;6271048;22;20576;-83
2023/03/14 01:13:06;;;;;;;0.95;0.47;;;;;;;;;;6269716;22;20395;-77
2023/03/14 01:15:33;;;;;;;0.83;0.50;;;10.00;99.90;;;;;;6274420;22;20152;-84
2023/03/14 01:17:59;;;;;;;1.08;0.52;;;10.00;99.90;;;;;;6269882;22;20733;-82
2023/03/14 01:20:24;;;;;;;0.60;0.47;;;10.00;99.90;;;;;;6269827;22;20156;-83
2023/03/14 01:22:50;;;;;;;0.53;0.40;;;10.60;99.90;;;;;;6265725;22;20235;-84
2023/03/14 01:25:16;;;;;;;0.70;0.47;;;10.10;99.90;;;;;;6265134;22;20163;-80
2023/03/14 01:27:42;;;;;;;1.33;0.65;;;;;;;;;;6267040;22;20174;-83
2023/03/14 01:30:09;;;;;;;0.60;0.50;;;10.10;99.90;;;;;;6267516;22;20215;-82
2023/03/14 01:32:35;;;;;;;0.88;0.50;;;;;;;;;;6266264;22;20171;-82
2023/03/14 01:35:00;;;;;;;1.27;0.90;;;10.10;99.90;;;;;;6261611;22;20151;-81
2023/03/14 01:37:26;;;;;;;0.87;0.67;;;10.20;99.90;;;;;;6270059;22;20151;-80
2023/03/14 01:39:51;;;;;;;1.80;0.70;;;10.30;99.90;;;;;;6267981;22;20156;-81
2023/03/14 01:42:17;;;;;;;0.80;0.73;;;;;;;;;;6264781;22;20177;-81
2023/03/14 01:44:57;;;;;;;0.50;0.30;;;10.30;99.90;;;;;;6270323;22;20582;-79
2023/03/14 01:47:24;;;;;;;0.52;0.50;;;10.20;99.90;;;;;;6272854;22;20376;-82
2023/03/14 01:49:58;;;;;;;0.60;0.45;;;10.30;99.90;;;;;;6270202;22;20194;-82
2023/03/14 01:52:41;;;;;;;0.50;0.50;;;10.30;99.90;;;;;;6266516;22;20167;-81
2023/03/14 01:55:12;;;;;;;0.73;0.43;;;10.20;99.90;;;;;;6264238;22;20669;-81
2023/03/14 01:57:50;;;;;;;5.03;0.47;;;10.20;99.90;;;;;;6265743;22;20939;-80
2023/03/14 02:00:20;;;;;;;0.52;0.52;;;10.10;99.90;;;;;;6260073;22;20151;-82
2023/03/14 02:02:50;;;;;;;0.75;0.73;;;10.10;99.90;;;;;;6268596;22;20156;-81
2023/03/14 02:05:18;;;;;;;0.52;0.40;;;10.10;99.90;;;;;;6264299;22;20495;-82
2023/03/14 02:07:51;;;;;;;1.38;0.63;;;10.10;99.90;;;;;;6268358;22;20160;-80
2023/03/14 02:10:19;;;;;;;0.73;0.50;;;10.00;99.90;;;;;;6266991;22;20175;-81
2023/03/14 02:12:46;;;;;;;1.23;0.70;;;10.00;99.90;;;;;;6267042;22;20169;-83
2023/03/14 02:15:12;;;;;;;0.65;0.50;;;9.90;99.90;;;;;;6266405;22;20159;-83
2023/03/14 02:17:40;;;;;;;1.80;0.60;;;10.00;99.90;;;;;;6272367;22;20147;-81
2023/03/14 02:20:42;;;;;;;1.00;0.50;;;10.00;99.90;;;;;;6285141;22;20175;-81
2023/03/14 02:23:08;;;;;;;0.60;0.60;;;10.00;99.90;;;;;;6273829;22;20146;-83
2023/03/14 02:26:05;;;;;;;0.50;0.50;;;10.00;99.90;;;;;;6269914;22;20491;-81
2023/03/14 02:28:31;;;;;;;0.73;0.50;;;9.90;99.90;;;;;;6269184;22;20225;-82
2023/03/14 02:30:57;;;;;;;0.57;0.33;;;9.90;99.90;;;;;;6273330;22;20254;-83
2023/03/14 02:33:23;;;;;;;3.90;1.00;;;10.00;99.90;;;;;;6269154;22;20152;-85
2023/03/14 02:35:56;;;;;;;0.85;0.50;;;10.00;99.90;;;;;;6266943;22;20164;-80
2023/03/14 02:38:43;;;;;;;0.68;0.50;;;10.00;99.90;;;;;;6265508;22;20144;-81
2023/03/14 02:41:09;;;;;;;0.40;0.40;;;9.80;99.90;;;;;;6269725;22;20178;-83
2023/03/14 02:43:35;;;;;;;0.60;0.50;;;9.90;99.90;;;;;;6269107;22;20211;-85
2023/03/14 02:46:03;;;;;;;1.70;0.50;;;10.00;99.90;;;;;;6265908;22;20155;-78
2023/03/14 02:48:36;;;;;;;4.60;0.60;;;10.00;99.90;;;;;;6274267;22;20148;-81
2023/03/14 02:51:02;;;;;;;0.80;0.40;;;10.00;99.90;;;;;;6268579;22;20199;-81
2023/03/14 02:53:33;;;;;;;0.73;0.60;;;10.00;99.90;;;;;;6261816;22;20517;-82
2023/03/14 02:55:59;;;;;;;1.88;0.77;;;10.00;99.90;;;;;;6268370;22;20158;-83
2023/03/14 02:58:26;;;;;;;1.40;0.50;;;;;;;;;;6268042;22;20168;-82
2023/03/14 03:00:52;;;;;;;2.08;0.47;;;9.90;99.90;;;;;;6267611;22;20190;-85
2023/03/14 03:03:17;;;;;;;5.50;0.70;;;9.80;99.90;;;;;;6265188;22;20144;-83
2023/03/14 03:05:43;;;;;;;0.90;0.67;;;9.80;99.90;;;;;;6240061;22;20376;-82
2023/03/14 03:08:09;;;;;;;0.80;0.70;;;9.90;99.90;;;;;;6266803;22;21090;-81
2023/03/14 03:10:35;;;;;;;0.80;0.60;;;9.70;99.90;;;;;;6270231;22;20421;-84
2023/03/14 03:13:00;;;;;;;5.70;0.70;;;9.70;99.90;;;;;;6269336;22;20213;-80
2023/03/14 03:15:26;;;;;;;0.90;0.80;;;9.70;99.90;;;;;;6272772;22;20154;-82
2023/03/14 03:17:52;;;;;;;0.63;0.63;;;9.70;99.90;;;;;;6272384;22;20136;-82
2023/03/14 03:20:17;;;;;;;1.87;0.50;;;9.80;99.90;;;;;;6271301;22;20366;-80
2023/03/14 03:22:43;;;;;;;0.83;0.50;;;9.70;99.90;;;;;;6270064;22;20151;-81
2023/03/14 03:25:09;;;;;;;1.40;0.70;;;9.70;99.90;;;;;;6244661;22;20188;-81
2023/03/14 03:27:36;;;;;;;0.98;0.60;;;9.80;99.90;;;;;;6245335;22;20152;-83
2023/03/14 03:30:04;;;;;;;1.23;0.70;;;9.80;99.90;;;;;;6271743;22;20182;-81
2023/03/14 03:32:29;;;;;;;2.05;0.73;;;9.80;99.90;;;;;;6239596;22;20186;-84
2023/03/14 03:34:55;;;;;;;0.77;0.60;;;9.80;99.90;;;;;;6269545;22;20163;-83
2023/03/14 03:37:20;;;;;;;0.50;0.40;;;9.80;99.90;;;;;;6244188;22;20155;-82
2023/03/14 03:39:46;;;;;;;1.83;0.60;;;9.90;99.90;;;;;;6251933;22;20159;-82
2023/03/14 03:42:11;;;;;;;0.80;0.40;;;9.90;99.90;;;;;;6241319;22;20180;-80
2023/03/14 03:44:37;;;;;;;1.60;1.13;;;;;;;;;;6240045;22;20143;-82
2023/03/14 03:47:03;;;;;;;1.67;0.68;;;9.80;99.90;;;;;;6268932;22;20884;-82
2023/03/14 03:49:32;;;;;;;3.23;0.80;;;9.70;99.90;;;;;;6246692;22;20175;-82
2023/03/14 03:51:58;;;;;;;3.47;0.90;;;9.70;99.90;;;;;;6270295;22;20390;-81
2023/03/14 03:54:24;;;;;;;1.63;0.43;;;9.70;99.90;;;;;;6265513;22;20194;-79
2023/03/14 03:56:49;;;;;;;2.58;1.30;;;9.60;99.90;;;;;;6239941;22;20151;-81
2023/03/14 03:59:15;;;;;;;4.33;0.73;;;9.70;99.90;;;;;;6265850;22;20235;-82
2023/03/14 04:01:41;;;;;;;1.77;0.60;;;9.70;99.90;;;;;;6266570;22;20232;-80
2023/03/14 04:04:07;;;;;;;1.30;0.57;;;9.70;99.90;;;;;;6265294;22;20230;-80
2023/03/14 04:06:32;;;;;;;1.67;0.60;;;9.70;99.90;;;;;;6264230;22;20580;-79
2023/03/14 04:08:58;;;;;;;4.27;0.60;;;9.60;99.90;;;;;;6266887;22;20176;-81
2023/03/14 04:11:24;;;;;;;1.00;0.70;;;;;;;;;;6269958;22;20171;-80
2023/03/14 04:13:49;;;;;;;3.33;0.80;;;9.60;99.90;;;;;;6267365;22;20205;-80
2023/03/14 04:16:19;;;;;;;1.10;0.60;;;9.60;99.90;;;;;;6269091;22;20366;-80
2023/03/14 04:18:44;;;;;;;1.85;0.77;;;9.50;99.90;;;;;;6271362;22;20238;-80
2023/03/14 04:21:10;;;;;;;2.10;0.80;;;9.50;99.90;;;;;;6267056;22;20260;-80
2023/03/14 04:23:36;;;;;;;3.30;0.90;;;9.50;99.90;;;;;;6268894;22;20156;-80
2023/03/14 04:26:02;;;;;;;1.58;0.50;;;9.60;99.90;;;;;;6264055;22;20152;-81
2023/03/14 04:28:27;;;;;;;1.70;0.77;;;9.60;99.90;;;;;;6263791;22;20197;-80
2023/03/14 04:30:53;;;;;;;2.80;0.60;;;9.60;99.90;;;;;;6265497;22;20497;-81
2023/03/14 04:33:18;;;;;;;0.77;0.37;;;9.60;99.90;;;;;;6268194;22;20148;-80
2023/03/14 04:35:44;;;;;;;1.60;0.70;;;9.60;99.90;;;;;;6288104;22;20132;-80
2023/03/14 04:38:10;;;;;;;2.28;0.82;;;9.70;99.90;;;;;;6290982;22;20148;-82
2023/03/14 04:40:37;;;;;;;2.85;0.80;;;9.70;99.90;;;;;;6275370;22;20191;-81
2023/03/14 04:43:03;;;;;;;1.90;0.70;;;9.70;99.90;;;;;;6274185;22;20194;-78
2023/03/14 04:45:29;;;;;;;3.07;0.70;;;9.60;99.90;;;;;;6273118;22;20163;-81
2023/03/14 04:47:54;;;;;;;3.30;0.80;;;9.60;99.90;;;;;;6282436;22;20395;-83
2023/03/14 04:50:19;;;;;;;1.30;0.57;;;9.50;99.90;;;;;;6278621;22;20179;-80
2023/03/14 04:52:45;;;;;;;2.57;0.90;;;9.50;99.90;;;;;;6283389;22;20144;-80
2023/03/14 04:55:10;;;;;;;2.13;0.63;;;9.50;99.90;;;;;;6271998;22;20547;-85
2023/03/14 04:57:36;;;;;;;1.17;0.60;;;9.80;99.90;;;;;;6270645;22;20171;-84
2023/03/14 05:00:06;;;;;;;1.50;0.60;;;9.60;99.90;;;;;;6243602;22;20151;-83
2023/03/14 05:02:31;;;;;;;2.58;1.67;;;9.50;99.90;;;;;;6245428;22;20175;-84
2023/03/14 05:04:57;;;;;;;1.67;0.60;;;9.50;99.90;;;;;;6271880;22;20155;-80
2023/03/14 05:07:22;;;;;;;2.70;0.40;;;9.50;99.90;;;;;;6245139;22;20198;-82
2023/03/14 05:09:48;;;;;;;7.50;1.13;;;9.60;99.90;;;;;;6273239;22;20171;-80
2023/03/14 05:12:14;;;;;;;6.70;0.90;;;9.50;99.90;;;;;;6273779;22;20555;-83
2023/03/14 05:14:39;;;;;;;17.27;3.70;;;9.50;99.90;;;;;;6271962;22;20144;-82
2023/03/14 05:17:05;;;;;;;2.60;1.17;;;9.50;99.90;;;;;;6242590;22;20171;-82
2023/03/14 05:19:30;;;;;;;11.93;6.70;;;9.40;99.90;;;;;;6270543;22;20160;-80
2023/03/14 05:21:56;;;;;;;1.50;0.97;;;9.40;99.90;;;;;;6241241;22;20237;-84
2023/03/14 05:24:22;;;;;;;1.00;0.60;;;9.30;99.90;;;;;;6243865;22;20212;-80
2023/03/14 05:26:47;;;;;;;3.80;0.90;;;9.30;99.90;;;;;;6273529;22;20155;-81
2023/03/14 05:29:13;;;;;;;5.00;0.73;;;9.30;99.90;;;;;;6271620;22;20171;-83
2023/03/14 05:31:38;;;;;;;4.50;1.10;;;9.30;99.90;;;;;;6242433;22;20176;-83
2023/03/14 05:34:04;;;;;;;2.40;0.60;;;9.40;99.90;;;;;;6242527;22;20565;-80
2023/03/14 05:36:30;;;;;;;6.13;0.70;;;9.30;99.90;;;;;;6268405;22;20160;-82
2023/03/14 05:38:55;;;;;;;2.03;0.60;;;9.40;99.90;;;;;;6240308;22;20164;-82
2023/03/14 05:41:21;;;;;;;2.60;0.60;;;9.50;99.90;;;;;;6242092;22;20191;-81
2023/03/14 05:43:46;;;;;;;1.77;1.00;;;9.60;99.90;;;;;;6243343;22;20215;-83
2023/03/14 05:46:12;;;;;;;4.20;1.03;;;9.60;99.90;;;;;;6265665;22;20160;-81
2023/03/14 05:48:37;;;;;;;1.90;0.97;;;9.60;99.90;;;;;;6273357;22;20155;-80
2023/03/14 05:51:03;;;;;;;4.63;0.80;;;9.60;99.90;;;;;;6271045;22;20225;-83
2023/03/14 05:53:30;;;;;;;2.00;0.60;;;9.70;99.90;;;;;;6239358;22;20156;-81
2023/03/14 05:55:56;;;;;;;0.82;0.40;;;9.70;99.90;;;;;;6245235;22;20154;-83
2023/03/14 05:58:22;;;;;;;1.35;0.55;;;9.60;99.90;;;;;;6254202;22;20183;-78
2023/03/14 06:00:47;;;;;;;3.00;1.07;;;9.60;99.90;;;;;;6269006;22;20175;-84
2023/03/14 06:03:14;;;;;;;3.73;0.60;;;9.60;99.90;;;;;;6270981;22;21236;-78
2023/03/14 06:05:39;;;;;;;2.67;0.85;;;9.80;99.90;;;;;;6294733;22;20203;-79
2023/03/14 06:08:05;;;;;;;1.23;1.03;;;9.80;99.90;;;;;;6277239;22;20195;-81
2023/03/14 06:10:30;;;;;;;2.53;0.73;;;9.80;99.90;;;;;;6265391;22;20853;-79
2023/03/14 06:12:56;;;;;;;2.97;0.90;;;9.80;99.90;;;;;;6266794;22;20163;-81
2023/03/14 06:15:21;;;;;;;3.17;0.77;;;9.80;99.90;;;;;;6268196;22;20151;-82
2023/03/14 06:17:47;;;;;;;4.13;0.70;;;9.90;99.90;;;;;;6268651;22;20155;-82
2023/03/14 06:20:13;;;;;;;4.63;1.20;;;10.00;99.90;;;;;;6260114;22;20231;-83
2023/03/14 06:22:40;;;;;;;1.85;0.57;;;10.10;99.90;;;;;;6259604;22;20292;-83
2023/03/14 06:25:06;;;;;;;3.08;1.60;;;10.00;99.90;;;;;;6254979;22;20163;-81
2023/03/14 06:27:32;;;;;;;3.20;1.02;;;;;;;;;;6267272;22;20661;-82
2023/03/14 06:29:58;;;;;;;4.57;0.90;;;10.00;99.90;;;;;;6265055;22;20274;-81
2023/03/14 06:32:24;;;;;;;14.23;9.67;;;10.00;99.90;;;;;;6266967;22;20395;-80
2023/03/14 06:34:49;;;;;;;1.38;0.85;;;10.10;99.90;;;;;;6263302;22;20231;-80
2023/03/14 06:37:15;;;;;;;2.30;1.67;;;10.10;99.90;;;;;;6264296;22;20175;-80
2023/03/14 06:39:41;;;;;;;4.20;0.90;;;10.40;99.90;;;;;;6263338;22;20156;-80
2023/03/14 06:42:06;;;;;;;1.73;0.80;;;10.70;99.90;;;;;;6278828;22;20180;-79
2023/03/14 06:44:32;;;;;;;5.40;1.77;;;10.70;99.90;;;;;;6267532;22;20231;-84
2023/03/14 06:46:58;;;;;;;3.30;1.67;;;10.80;99.90;;;;;;6282991;22;20139;-78
2023/03/14 06:49:23;;;;;;;6.97;5.20;;;;;;;;;;6278657;22;20700;-83
2023/03/14 06:51:50;;;;;;;5.13;2.33;;;;;;;;;;6260893;22;20207;-81
2023/03/14 06:54:16;;;;;;;3.85;2.40;;;;;;;;;;6259917;22;20457;-80
2023/03/14 06:56:42;;;;;;;3.20;1.70;;;;;;;;;;6263223;22;20671;-81
2023/03/14 06:59:08;;;;;;;7.67;3.93;;;16.00;99.90;;;;;;6263330;22;20390;-80
2023/03/14 07:01:34;;;;;;;2.47;0.67;;;15.20;99.90;;;;;;6237494;22;20433;-82
2023/03/14 07:04:00;;;;;;;3.37;1.00;;;14.70;99.90;;;;;;6237128;22;21014;-80
2023/03/14 07:06:29;;;;;;;1.17;0.83;;;14.50;99.90;;;;;;6265086;22;21123;-82
2023/03/14 07:08:54;;;;;;;2.67;0.93;;;14.20;99.90;;;;;;6266266;22;20398;-80
2023/03/14 07:11:20;;;;;;;1.30;0.73;;;13.60;99.90;;;;;;6265484;22;20405;-82
2023/03/14 07:13:46;;;;;;;2.60;0.83;;;13.10;99.90;;;;;;6236782;22;20389;-81
2023/03/14 07:16:11;;;;;;;1.90;0.70;;;12.80;99.90;;;;;;6237176;22;20151;-77
2023/03/14 07:18:37;;;;;;;3.37;1.10;;;12.40;99.90;;;;;;6273478;22;20927;-82
2023/03/14 07:21:03;;;;;;;3.40;0.93;;;12.10;99.90;;;;;;6266991;22;20270;-82
2023/03/14 07:23:30;;;;;;;1.95;1.10;;;11.80;99.90;;;;;;6259760;22;20156;-81
2023/03/14 07:25:56;;;;;;;2.80;0.70;;;11.50;99.90;;;;;;6267643;22;20174;-79
2023/03/14 07:28:22;;;;;;;1.20;0.40;;;11.50;99.90;;;;;;6257218;22;20156;-79
2023/03/14 07:30:48;;;;;;;4.85;0.85;;;11.20;99.90;;;;;;6281934;22;20581;-85
2023/03/14 07:33:14;;;;;;;1.07;0.40;;;11.10;99.90;;;;;;6268285;22;20159;-81
2023/03/14 07:35:39;;;;;;;1.33;0.50;;;11.10;99.90;;;;;;6239536;22;20712;-82
2023/03/14 07:38:05;;;;;;;1.33;0.60;;;11.20;99.90;;;;;;6269994;22;20265;-79
2023/03/14 07:40:30;;;;;;;1.50;0.57;;;11.30;99.90;;;;;;6282865;22;20233;-83
2023/03/14 07:42:56;;;;;;;1.63;0.87;;;11.50;99.90;;;;;;6265917;22;20597;-84
2023/03/14 07:45:22;;;;;;;0.82;0.57;;;11.80;99.90;;;;;;6263874;22;20645;-81
2023/03/14 07:47:47;;;;;;;3.60;1.30;;;12.20;99.90;;;;;;6236618;22;20144;-79
2023/03/14 07:50:13;;;;;;;1.57;0.40;;;12.80;99.90;;;;;;6265081;22;20171;-83
2023/03/14 07:52:39;;;;;;;0.97;0.40;;;13.20;99.90;;;;;;6236678;22;20229;-81
2023/03/14 07:55:05;;;;;;;1.00;0.70;;;13.60;99.90;;;;;;6229832;22;20140;-82
2023/03/14 07:57:30;;;;;;;2.03;0.67;;;13.80;99.90;;;;;;6264562;22;20598;-80
2023/03/14 07:59:56;;;;;;;0.83;0.50;;;14.50;99.90;;;;;;6264597;22;20363;-80
2023/03/14 08:02:23;;;;;;;0.80;0.40;;;;;;;;;;6242744;22;20410;-80
2023/03/14 08:04:50;;;;;;;1.40;0.83;;;17.10;99.90;;;;;;6263186;22;20152;-82
2023/03/14 08:07:16;;;;;;;2.50;0.70;;;;;;;;;;6261437;22;20370;-81
2023/03/14 08:09:42;;;;;;;1.83;0.40;;;;;;;;;;6237044;22;20914;-79
2023/03/14 08:12:09;;;;;;;1.90;0.30;;;15.20;99.90;;;;;;6260861;22;20440;-82
2023/03/14 08:14:35;;;;;;;0.60;0.50;;;;;;;;;;6263381;22;20398;-80
2023/03/14 08:17:01;;;;;;;0.60;0.40;;;;;;;;;;6264104;22;20370;-79
2023/03/14 08:19:27;;;;;;;0.90;0.60;;;18.00;99.90;;;;;;6262925;22;20370;-81
2023/03/14 08:21:53;;;;;;;0.63;0.30;;;;;;;;;;6264245;22;20448;-81
2023/03/14 08:24:19;;;;;;;1.90;0.57;;;18.00;99.90;;;;;;6262012;22;20177;-81
2023/03/14 08:26:44;;;;;;;0.60;0.40;;;16.70;99.90;;;;;;6264063;22;20378;-81
2023/03/14 08:29:12;;;;;;;2.30;0.40;;;;;;;;;;6263788;22;20175;-82
2023/03/14 08:31:38;;;;;;;0.60;0.30;;;;;;;;;;6256977;22;20193;-78
2023/03/14 08:34:04;;;;;;;0.70;0.30;;;18.80;99.90;;;;;;6274700;22;20379;-82
2023/03/14 08:36:30;;;;;;;0.90;0.40;;;;;;;;;;6238486;22;20972;-80
2023/03/14 08:38:56;;;;;;;0.50;0.30;;;16.90;99.90;;;;;;6265926;22;20485;-82
2023/03/14 08:41:22;;;;;;;0.83;0.50;;;15.60;99.90;;;;;;6263887;22;20906;-81
2023/03/14 08:43:47;;;;;;;1.27;0.40;;;15.20;99.90;;;;;;6266728;22;20381;-81
2023/03/14 08:46:13;;;;;;;2.93;0.40;;;15.00;99.90;;;;;;6237098;22;20152;-83
2023/03/14 08:48:38;;;;;;;0.60;0.30;;;14.50;99.90;;;;;;6237242;22;20182;-79
2023/03/14 08:51:12;;;;;;;0.50;0.30;;;14.30;99.90;;;;;;6265818;22;20172;-82
2023/03/14 08:53:38;;;;;;;2.30;0.30;;;14.10;99.90;;;;;;6240871;22;20154;-79
2023/03/14 08:56:05;;;;;;;0.70;0.40;;;14.00;99.90;;;;;;6242280;22;20461;-82
2023/03/14 08:58:31;;;;;;;2.80;0.50;;;13.10;99.90;;;;;;6269493;22;20778;-81
2023/03/14 09:00:57;;;;;;;1.17;0.40;;;12.80;99.90;;;;;;6268428;22;20398;-82
2023/03/14 09:03:23;;;;;;;1.47;0.40;;;12.70;99.90;;;;;;6267082;22;20408;-82
2023/03/14 09:05:50;;;;;;;0.63;0.43;;;12.20;99.90;;;;;;6240209;22;20183;-81
2023/03/14 09:08:15;;;;;;;0.50;0.30;;;12.00;99.90;;;;;;6245812;22;20155;-80
2023/03/14 09:10:41;;;;;;;0.87;0.40;;;11.60;99.90;;;;;;6296131;22;20236;-81
2023/03/14 09:13:07;;;;;;;2.30;0.40;;;11.50;99.90;;;;;;6246271;22;20849;-81
2023/03/14 09:15:32;;;;;;;1.83;0.40;;;11.60;99.90;;;;;;6268816;22;20214;-82
2023/03/14 09:17:58;;;;;;;1.83;0.33;;;11.80;99.90;;;;;;6269010;22;20176;-80
2023/03/14 09:20:24;;;;;;;0.40;0.30;;;12.10;99.90;;;;;;6237334;22;20276;-82
2023/03/14 09:22:49;;;;;;;2.63;0.50;;;12.10;99.90;;;;;;6236987;22;20163;-82
2023/03/14 09:25:15;;;;;;;0.50;0.30;;;12.30;99.90;;;;;;6262574;22;20163;-80
2023/03/14 09:27:40;;;;;;;3.03;0.50;;;12.50;99.90;;;;;;6237239;22;20156;-82
2023/03/14 09:30:07;;;;;;;3.13;0.40;;;12.60;99.90;;;;;;6239454;22;20187;-80
2023/03/14 09:32:32;;;;;;;1.10;0.52;;;12.50;99.90;;;;;;6268238;22;20164;-81
2023/03/14 09:34:58;;;;;;;0.70;0.50;;;12.40;99.90;;;;;;6241453;22;20230;-81
2023/03/14 09:37:23;;;;;;;0.40;0.30;;;12.60;99.90;;;;;;6261553;22;20160;-81
2023/03/14 09:39:49;;;;;;;2.00;0.40;;;12.50;99.90;;;;;;6240399;22;20194;-80
2023/03/14 09:42:18;;;;;;;0.97;0.40;;;12.50;99.90;;;;;;6238398;22;20187;-81
2023/03/14 09:45:05;;;;;;;1.38;0.55;;;12.50;99.90;;;;;;6274087;22;20148;-80
2023/03/14 09:47:33;;;;;;;0.50;0.28;;;12.40;99.90;;;;;;6238941;22;20152;-81
2023/03/14 09:50:01;;;;;;;2.55;0.40;;;12.50;99.90;;;;;;6239611;22;20278;-83
2023/03/14 09:52:39;;;;;;;5.53;3.33;;;12.30;99.90;;;;;;6236335;22;20176;-82
2023/03/14 09:55:22;;;;;;;0.68;0.40;;;12.40;99.90;;;;;;6266006;22;20796;-82
2023/03/14 09:58:00;;;;;;;0.60;0.40;;;12.50;99.90;;;;;;6244685;22;20242;-80
2023/03/14 10:00:28;;;;;;;0.70;0.70;;;13.00;99.90;;;;;;6263821;22;20216;-82
2023/03/14 10:03:02;;;;;;;0.40;0.30;;;13.00;99.90;;;;;;6272341;22;20132;-79
2023/03/14 10:05:29;;;;;;;3.03;0.40;;;13.20;99.90;;;;;;6273453;22;20570;-85
2023/03/14 10:07:56;;;;;;;0.40;0.30;;;13.30;99.90;;;;;;6284074;22;20384;-80
2023/03/14 10:10:24;;;;;;;0.70;0.30;;;12.90;99.90;;;;;;6288872;22;20418;-80
2023/03/14 10:12:58;;;;;;;0.50;0.50;;;12.90;99.90;;;;;;6270915;22;20988;-84
2023/03/14 10:15:34;;;;;;;0.40;0.30;;;12.60;99.90;;;;;;6267328;22;20151;-83
2023/03/14 10:18:02;;;;;;;0.75;0.40;;;12.40;99.90;;;;;;6264102;22;20680;-81
2023/03/14 10:20:32;;;;;;;0.60;0.30;;;12.50;99.90;;;;;;6265311;22;20155;-82
2023/03/14 10:23:04;;;;;;;0.50;0.35;;;12.60;99.90;;;;;;6259333;22;20128;-83
2023/03/14 10:25:33;;;;;;;0.50;0.30;;;13.00;99.90;;;;;;6262927;22;20198;-83
2023/03/14 10:27:59;;;;;;;0.50;0.30;;;13.30;99.90;;;;;;6266621;22;20170;-80
2023/03/14 10:30:33;;;;;;;0.40;0.30;;;13.20;99.90;;;;;;6268903;22;20179;-82
2023/03/14 10:33:09;;;;;;;0.40;0.30;;;13.20;99.90;;;;;;6263301;22;20378;-81
2023/03/14 10:35:35;;;;;;;0.40;0.30;;;12.90;99.90;;;;;;6264135;22;20258;-80
2023/03/14 10:38:02;;;;;;;0.40;0.20;;;12.50;99.90;;;;;;6262532;22;20563;-83
2023/03/14 10:40:31;;;;;;;0.63;0.40;;;12.20;99.90;;;;;;6266375;22;20408;-81
2023/03/14 10:42:58;;;;;;;0.40;0.30;;;12.30;99.90;;;;;;6297484;22;20151;-79
2023/03/14 10:45:35;;;;;;;0.40;0.30;;;12.50;99.90;;;;;;6278448;22;20148;-80
2023/03/14 10:48:18;;;;;;;0.40;0.20;;;12.60;99.90;;;;;;6263179;22;20159;-82
2023/03/14 10:51:11;;;;;;;1.05;0.30;;;12.70;99.90;;;;;;6269285;22;20179;-80
2023/03/14 10:53:58;;;;;;;0.40;0.20;;;12.20;99.90;;;;;;6296818;22;20117;-81
2023/03/14 10:56:26;;;;;;;0.50;0.30;;;12.50;99.90;;;;;;6289626;22;20156;-81
2023/03/14 10:58:57;;;;;;;0.50;0.30;;;12.60;99.90;;;;;;6269305;22;20164;-83
2023/03/14 11:01:33;;;;;;;0.40;0.35;;;12.50;99.90;;;;;;6261173;22;20211;-81
2023/03/14 11:04:15;;;;;;;0.50;0.50;;;12.10;99.90;;;;;;6264812;22;20132;-81
2023/03/14 11:07:06;;;;;;;0.95;0.30;;;12.00;99.90;;;;;;6237723;22;20232;-78
2023/03/14 11:09:41;;;;;;;0.63;0.30;;;11.70;99.90;;;;;;6263546;22;20197;-80
2023/03/14 11:12:28;;;;;;;0.50;0.30;;;11.90;99.90;;;;;;6266351;22;20605;-81
2023/03/14 11:15:00;;;;;;;1.50;0.40;;;12.10;99.90;;;;;;6265114;22;20194;-81
2023/03/14 11:18:24;;;;;;;1.38;0.30;;;12.50;99.90;;;;;;6239133;22;20225;-84
2023/03/14 11:20:55;;;;;;;0.40;0.20;;;12.50;99.90;;;;;;6160172;23;20253;-81
2023/03/14 11:23:23;;;;;;;0.50;0.30;;;12.80;99.90;;;;;;6246948;22;20704;-79
2023/03/14 11:26:20;;;;;;;0.40;0.20;;;12.90;99.90;;;;;;6261953;22;20141;-79
2023/03/14 11:28:49;;;;;;;0.40;0.30;;;12.70;99.90;;;;;;6238031;22;20144;-82
2023/03/14 11:31:27;;;;;;;0.47;0.30;;;12.50;99.90;;;;;;6235413;22;20565;-80
2023/03/14 11:34:30;;;;;;;0.70;0.30;;;12.30;99.90;;;;;;6265352;22;20136;-81
2023/03/14 11:37:11;;;;;;;0.50;0.30;;;12.10;99.90;;;;;;6265376;22;20221;-82
2023/03/14 11:39:41;;;;;;;0.75;0.30;;;11.40;99.90;;;;;;6265462;22;20139;-82
2023/03/14 11:42:12;;;;;;;1.40;0.32;;;11.50;99.90;;;;;;6238228;22;20616;-84
2023/03/14 11:44:40;;;;;;;0.40;0.30;;;11.50;99.90;;;;;;6236152;22;20183;-80
2023/03/14 11:47:18;;;;;;;1.13;0.60;;;11.40;99.90;;;;;;6246156;22;20152;-82
2023/03/14 11:49:53;;;;;;;0.75;0.40;;;11.40;99.90;;;;;;6268426;22;20167;-83
2023/03/14 11:52:27;;;;;;;0.50;0.30;;;11.30;99.90;;;;;;6237325;22;20167;-84
2023/03/14 11:55:04;;;;;;;0.45;0.30;;;11.10;99.90;;;;;;6239333;22;20151;-81
2023/03/14 11:57:30;;;;;;;0.30;0.20;;;11.00;99.90;;;;;;6265260;22;20851;-80
2023/03/14 12:00:12;;;;;;;0.40;0.30;;;10.70;99.90;;;;;;6238208;22;20175;-82
2023/03/14 12:03:04;;;;;;;0.60;0.30;;;10.50;99.90;;;;;;6241193;22;20198;-80
2023/03/14 12:06:09;;;;;;;0.40;0.30;;;10.30;99.90;;;;;;6240417;22;20259;-81
2023/03/14 12:08:59;;;;;;;0.40;0.30;;;10.30;99.90;;;;;;6232943;22;20601;-82
2023/03/14 12:11:38;;;;;;;0.40;0.35;;;10.50;99.90;;;;;;6246993;22;20262;-80
2023/03/14 12:14:36;;;;;;;0.50;0.50;;;10.60;99.90;;;;;;6280651;22;20463;-79
2023/03/14 12:17:21;;;;;;;0.50;0.30;;;10.50;99.90;;;;;;6277724;22;20601;-80
2023/03/14 12:19:48;;;;;;;0.40;0.30;;;10.50;99.90;;;;;;6268744;22;20128;-83
2023/03/14 12:23:05;;;;;;;0.65;0.60;;;10.40;99.90;;;;;;6262896;22;20164;-82
2023/03/14 12:25:33;;;;;;;0.93;0.57;;;10.00;99.90;;;;;;6113574;23;20163;-83
2023/03/14 12:28:17;;;;;;;0.70;0.50;;;9.80;99.90;;;;;;6142777;23;20186;-79
2023/03/14 12:30:42;;;;;;;1.70;0.77;;;9.60;99.90;;;;;;6202946;22;20218;-81
2023/03/14 12:33:17;;;;;;;0.60;0.50;;;9.30;99.90;;;;;;6270698;22;20756;-82
2023/03/14 12:35:45;;;;;;;1.95;0.90;;;9.20;99.90;;;;;;6241168;22;20242;-79
2023/03/14 12:38:14;;;;;;;0.88;0.73;;;9.10;99.90;;;;;;6266044;22;20583;-80
2023/03/14 12:40:52;;;;;;;1.15;1.05;;;8.80;99.90;;;;;;6271969;22;20148;-82
2023/03/14 12:43:30;;;;;;;1.35;0.60;;;8.80;99.90;;;;;;6240990;22;20148;-82
2023/03/14 12:46:17;;;;;;;1.45;1.10;;;8.90;99.90;;;;;;6244048;22;20174;-80
2023/03/14 12:48:49;;;;;;;2.42;0.90;;;8.90;99.90;;;;;;6256355;22;20184;-83
2023/03/14 12:51:17;;;;;;;0.90;0.85;;;8.90;99.90;;;;;;6295137;22;20194;-78
2023/03/14 12:54:23;;;;;;;1.20;1.10;;;8.90;99.90;;;;;;6253611;22;20167;-79
2023/03/14 12:56:54;;;;;;;1.63;1.52;;;8.80;99.90;;;;;;6231078;22;20155;-83
2023/03/14 12:59:46;;;;;;;1.45;1.20;;;8.80;99.90;;;;;;6268569;22;20194;-83
2023/03/14 13:02:25;;;;;;;4.50;1.05;;;8.70;99.90;;;;;;6269042;22;20243;-80
2023/03/14 13:05:10;;;;;;;0.70;0.70;;;8.80;99.90;;;;;;6273175;22;20132;-81
2023/03/14 13:07:55;;;;;;;2.00;0.70;;;8.70;99.90;;;;;;6271790;22;20147;-82
2023/03/14 13:10:26;;;;;;;1.13;0.60;;;8.90;99.90;;;;;;6267717;22;20229;-81